Time;durP1;ratioP1;P1;durP2;ratioP2;P2;SDS_P1;SDS_P2;PMS_P1;PMS_P2;Temp;Humidity;BMP_temperature;BMP_pressure;BME280_temperature;BME280_humidity;BME280_pressure;Samples;Min_cycle;Max_cycle;Signal;HPM_P1;HPM_P2
2024/04/25 00:01:33;;;;;;;2.40;1.10;;;23.90;61.50;;;;;;5436969;26;20467;-29
2024/04/25 00:04:07;;;;;;;1.33;0.97;;;24.30;66.80;;;;;;5422142;26;21077;-30
2024/04/25 00:06:35;;;;;;;1.70;1.30;;;23.60;62.10;;;;;;5414499;26;20455;-29
2024/04/25 00:09:15;;;;;;;2.13;1.20;;;23.90;62.60;;;;;;5434150;26;20535;-29
2024/04/25 00:11:46;;;;;;;3.80;1.17;;;23.50;70.30;;;;;;5432909;26;20466;-31
2024/04/25 00:14:18;;;;;;;2.60;1.20;;;24.80;69.30;;;;;;5443362;26;20479;-31
2024/04/25 00:16:46;;;;;;;2.80;1.20;;;22.70;69.70;;;;;;5434511;26;20527;-31
2024/04/25 00:19:15;;;;;;;4.10;1.40;;;23.30;70.40;;;;;;5419354;26;21220;-30
2024/04/25 00:21:46;;;;;;;1.73;1.30;;;23.80;72.60;;;;;;5429077;26;20577;-31
2024/04/25 00:24:21;;;;;;;2.60;1.23;;;24.70;75.40;;;;;;5427261;26;20463;-30
2024/04/25 00:26:54;;;;;;;1.67;0.90;;;24.30;74.30;;;;;;5413525;26;22146;-29
2024/04/25 00:29:22;;;;;;;2.03;1.57;;;24.60;76.50;;;;;;5428853;26;21137;-30
2024/04/25 00:31:52;;;;;;;1.60;1.10;;;23.90;76.90;;;;;;5430929;26;20568;-29
2024/04/25 00:34:20;;;;;;;2.30;1.20;;;23.30;76.20;;;;;;5430350;26;20542;-32
2024/04/25 00:36:50;;;;;;;1.10;0.80;;;23.50;78.20;;;;;;5436613;26;20595;-28
2024/04/25 00:39:21;;;;;;;1.40;1.00;;;23.20;80.90;;;;;;5430091;26;20837;-29
2024/04/25 00:41:58;;;;;;;1.77;1.20;;;24.30;82.60;;;;;;5432207;26;21098;-29
2024/04/25 00:44:29;;;;;;;1.47;1.00;;;24.00;81.20;;;;;;5436345;26;20467;-29
2024/04/25 00:46:58;;;;;;;2.30;0.90;;;23.30;72.00;;;;;;5435050;26;20574;-30
2024/04/25 00:49:29;;;;;;;1.60;1.10;;;23.70;83.80;;;;;;5432695;26;20459;-30
2024/04/25 00:51:57;;;;;;;1.50;1.10;;;23.40;84.40;;;;;;5420506;26;20573;-30
2024/04/25 00:54:36;;;;;;;1.50;1.00;;;23.50;86.50;;;;;;5434952;26;20578;-31
2024/04/25 00:57:12;;;;;;;1.30;0.90;;;23.30;80.60;;;;;;5430760;26;20461;-28
2024/04/25 00:59:52;;;;;;;2.20;1.03;;;24.40;88.10;;;;;;5424075;26;20584;-29
2024/04/25 01:02:23;;;;;;;2.60;1.53;;;23.40;85.10;;;;;;5428009;26;20487;-29
2024/04/25 01:04:52;;;;;;;2.40;1.37;;;23.40;87.90;;;;;;5438030;26;20471;-30
2024/04/25 01:07:21;;;;;;;2.33;1.13;;;22.80;85.40;;;;;;5429109;26;20479;-30
2024/04/25 01:09:56;;;;;;;1.70;1.30;;;24.20;84.90;;;;;;5421834;26;20590;-30
2024/04/25 01:12:31;;;;;;;3.70;1.00;;;23.00;85.80;;;;;;5430704;26;21027;-28
2024/04/25 01:15:01;;;;;;;2.00;1.20;;;23.60;88.10;;;;;;5406528;26;20550;-30
2024/04/25 01:17:37;;;;;;;2.10;1.00;;;22.70;90.60;;;;;;5424167;26;21063;-29
2024/04/25 01:20:09;;;;;;;1.20;0.80;;;22.90;89.70;;;;;;5435941;26;21073;-30
2024/04/25 01:22:42;;;;;;;1.50;0.93;;;23.10;85.70;;;;;;5417135;26;20479;-31
2024/04/25 01:25:17;;;;;;;2.57;1.27;;;23.90;85.30;;;;;;5421687;26;21162;-29
2024/04/25 01:27:47;;;;;;;1.63;1.13;;;23.00;84.90;;;;;;5434249;26;20459;-28
2024/04/25 01:30:18;;;;;;;1.10;0.80;;;23.10;81.30;;;;;;5423012;26;20459;-30
2024/04/25 01:32:48;;;;;;;2.40;1.07;;;24.10;84.70;;;;;;5425036;26;20475;-32
2024/04/25 01:35:23;;;;;;;3.80;1.10;;;23.30;81.90;;;;;;5446515;26;20601;-30
2024/04/25 01:37:52;;;;;;;1.33;0.90;;;22.70;84.80;;;;;;5425979;26;20474;-31
2024/04/25 01:40:23;;;;;;;1.90;1.20;;;23.30;78.50;;;;;;5440771;26;20475;-30
2024/04/25 01:42:59;;;;;;;1.97;1.00;;;23.20;78.50;;;;;;5423983;26;20475;-30
2024/04/25 01:45:29;;;;;;;1.20;0.70;;;23.30;78.20;;;;;;5421616;26;20452;-29
2024/04/25 01:47:59;;;;;;;1.47;1.07;;;23.00;77.10;;;;;;5434080;26;20456;-29
2024/04/25 01:50:30;;;;;;;1.17;0.90;;;23.00;77.30;;;;;;5435169;26;20571;-29
2024/04/25 01:53:01;;;;;;;1.93;1.20;;;23.30;77.30;;;;;;5431436;26;20461;-29
2024/04/25 01:55:32;;;;;;;1.77;0.90;;;23.10;77.30;;;;;;5439744;26;20531;-30
2024/04/25 01:58:00;;;;;;;1.20;0.90;;;23.20;78.10;;;;;;5431868;26;20478;-29
2024/04/25 02:00:30;;;;;;;1.60;1.10;;;23.00;77.60;;;;;;5428869;26;20546;-31
2024/04/25 02:03:00;;;;;;;2.40;1.50;;;22.80;77.10;;;;;;5437648;26;20584;-29
2024/04/25 02:05:28;;;;;;;1.10;0.90;;;23.30;76.60;;;;;;5432033;26;20471;-30
2024/04/25 02:08:02;;;;;;;1.50;1.07;;;23.90;77.10;;;;;;5437892;26;20471;-29
2024/04/25 02:10:33;;;;;;;1.90;0.90;;;22.60;74.50;;;;;;5432888;26;20573;-29
2024/04/25 02:13:02;;;;;;;1.50;1.00;;;23.70;77.30;;;;;;5426260;26;20595;-28
2024/04/25 02:15:30;;;;;;;1.57;0.93;;;22.70;77.30;;;;;;5430303;26;20567;-30
2024/04/25 02:17:58;;;;;;;1.70;1.07;;;23.10;77.90;;;;;;5429813;26;20525;-29
2024/04/25 02:26:10;;;;;;;2.17;1.20;;;23.30;78.70;;;;;;5432721;26;20517;-31
2024/04/25 02:28:39;;;;;;;1.20;1.00;;;23.10;80.20;;;;;;5426865;26;20471;-29
2024/04/25 02:31:10;;;;;;;1.10;0.97;;;23.50;80.40;;;;;;5445003;26;20599;-30
2024/04/25 02:33:42;;;;;;;1.20;0.90;;;23.10;81.70;;;;;;5429260;26;20989;-30
2024/04/25 02:36:11;;;;;;;1.75;1.00;;;22.80;83.60;;;;;;5441176;26;20454;-31
2024/04/25 02:38:44;;;;;;;1.43;0.90;;;22.80;84.50;;;;;;5416294;26;20238;-29
2024/04/25 02:41:18;;;;;;;1.37;0.97;;;22.70;74.60;;;;;;5434717;26;21127;-29
2024/04/25 02:43:52;;;;;;;1.63;1.17;;;22.90;82.00;;;;;;5438222;26;20519;-30
2024/04/25 02:46:21;;;;;;;1.33;1.00;;;22.60;80.80;;;;;;5418765;26;20469;-29
2024/04/25 02:48:50;;;;;;;1.30;0.80;;;22.60;80.70;;;;;;5437154;26;20844;-30
2024/04/25 02:51:18;;;;;;;1.37;0.90;;;23.10;81.50;;;;;;5424077;26;20464;-30
2024/04/25 02:53:44;;;;;;;1.60;0.90;;;22.80;80.90;;;;;;5420900;26;20448;-30
2024/04/25 02:56:21;;;;;;;1.60;0.90;;;22.60;79.40;;;;;;5424856;26;20682;-30
2024/04/25 02:58:48;;;;;;;1.23;1.00;;;22.40;74.00;;;;;;5426261;26;20242;-30
2024/04/25 03:01:17;;;;;;;1.57;1.00;;;22.20;75.10;;;;;;5419159;26;21330;-29
2024/04/25 03:03:42;;;;;;;6.00;1.20;;;22.70;79.30;;;;;;5421008;26;21459;-29
2024/04/25 03:06:12;;;;;;;1.30;1.10;;;22.40;76.70;;;;;;5443611;26;20475;-30
2024/04/25 03:08:38;;;;;;;1.60;1.20;;;22.50;76.20;;;;;;5418582;26;20879;-29
2024/04/25 03:11:07;;;;;;;1.07;0.80;;;22.50;79.90;;;;;;5433787;26;20480;-29
2024/04/25 03:13:35;;;;;;;1.20;0.90;;;22.30;77.00;;;;;;5424280;26;20254;-29
2024/04/25 03:16:05;;;;;;;1.47;0.97;;;22.70;78.70;;;;;;5436218;26;20448;-30
2024/04/25 03:18:33;;;;;;;1.50;0.90;;;23.50;80.70;;;;;;5415059;26;20473;-31
2024/04/25 03:21:05;;;;;;;1.40;1.10;;;23.00;79.70;;;;;;5425981;26;21992;-29
2024/04/25 03:23:31;;;;;;;1.90;0.93;;;22.40;72.20;;;;;;5426967;26;20479;-29
2024/04/25 03:25:59;;;;;;;1.97;0.90;;;22.30;76.20;;;;;;5426007;26;21266;-30
2024/04/25 03:28:29;;;;;;;2.00;1.00;;;23.40;78.50;;;;;;5432113;26;20626;-29
2024/04/25 03:31:00;;;;;;;1.10;0.90;;;23.30;76.80;;;;;;5431484;26;20474;-28
2024/04/25 03:33:28;;;;;;;1.45;0.98;;;23.10;72.40;;;;;;5426305;26;20471;-29
2024/04/25 03:35:54;;;;;;;3.00;0.90;;;22.30;76.50;;;;;;5434644;26;20258;-30
2024/04/25 03:38:26;;;;;;;2.67;0.90;;;22.10;80.60;;;;;;5429506;26;20451;-31
2024/04/25 03:40:58;;;;;;;1.90;1.40;;;22.20;81.50;;;;;;5438588;26;20856;-30
2024/04/25 03:43:26;;;;;;;1.48;0.80;;;22.30;72.30;;;;;;5426534;26;20463;-30
2024/04/25 03:45:54;;;;;;;1.52;1.02;;;22.30;75.10;;;;;;5436945;26;21759;-29
2024/04/25 03:48:25;;;;;;;1.80;1.00;;;22.70;77.20;;;;;;5430060;26;20326;-30
2024/04/25 03:50:53;;;;;;;2.17;0.90;;;22.30;81.70;;;;;;5432728;26;20459;-32
2024/04/25 03:53:22;;;;;;;1.20;0.90;;;22.40;78.40;;;;;;5414085;26;20238;-29
2024/04/25 03:55:50;;;;;;;1.73;0.90;;;22.20;79.10;;;;;;5428103;26;20464;-30
2024/04/25 03:58:22;;;;;;;1.00;0.70;;;23.50;77.90;;;;;;5432013;26;20625;-30
2024/04/25 04:00:51;;;;;;;2.08;1.02;;;22.20;73.20;;;;;;5419283;26;20586;-28
2024/04/25 04:03:19;;;;;;;1.20;0.70;;;23.20;78.10;;;;;;5437727;26;20778;-30
2024/04/25 04:05:55;;;;;;;2.10;1.27;;;22.30;78.00;;;;;;5437142;26;20246;-30
2024/04/25 04:08:27;;;;;;;2.40;0.90;;;22.70;78.30;;;;;;5428262;26;20470;-29
2024/04/25 04:10:55;;;;;;;1.75;1.20;;;23.30;78.10;;;;;;5440520;26;21143;-29
2024/04/25 04:13:21;;;;;;;1.83;0.90;;;23.00;77.50;;;;;;5419669;26;20242;-30
2024/04/25 04:15:49;;;;;;;1.50;1.07;;;23.20;75.80;;;;;;5435638;26;21225;-29
2024/04/25 04:18:18;;;;;;;1.10;0.80;;;22.90;77.10;;;;;;5430062;26;20246;-30
2024/04/25 04:20:48;;;;;;;1.20;0.80;;;21.30;75.10;;;;;;5426707;26;20524;-29
2024/04/25 04:23:19;;;;;;;1.33;0.85;;;22.00;72.00;;;;;;5423562;26;20330;-29
2024/04/25 04:25:48;;;;;;;1.25;0.80;;;22.10;71.70;;;;;;5433382;26;20230;-30
2024/04/25 04:28:16;;;;;;;3.00;0.77;;;22.20;74.20;;;;;;5430874;26;20273;-29
2024/04/25 04:30:44;;;;;;;1.55;0.95;;;21.80;74.60;;;;;;5436448;26;20238;-30
2024/04/25 04:33:13;;;;;;;1.35;0.93;;;22.90;75.50;;;;;;5431026;26;20756;-29
2024/04/25 04:35:43;;;;;;;1.30;1.13;;;21.70;75.40;;;;;;5431657;26;20232;-31
2024/04/25 04:38:15;;;;;;;1.20;0.80;;;22.30;80.90;;;;;;5409944;26;20338;-32
2024/04/25 04:40:46;;;;;;;2.28;1.27;;;22.40;71.50;;;;;;5418429;26;20854;-29
2024/04/25 04:43:14;;;;;;;1.10;0.80;;;23.40;78.20;;;;;;5439696;26;20246;-29
2024/04/25 04:45:43;;;;;;;1.10;0.80;;;22.70;80.90;;;;;;5434144;26;20338;-28
2024/04/25 04:48:16;;;;;;;1.97;0.70;;;22.70;81.20;;;;;;5429445;26;21206;-30
2024/04/25 04:50:45;;;;;;;1.30;0.88;;;22.30;77.30;;;;;;5438427;26;21647;-30
2024/04/25 04:53:15;;;;;;;1.15;0.75;;;22.10;78.60;;;;;;5421270;26;20362;-31
2024/04/25 04:55:48;;;;;;;1.75;0.95;;;23.10;82.60;;;;;;5438959;26;20248;-29
2024/04/25 04:58:16;;;;;;;1.27;0.80;;;22.50;79.30;;;;;;5430347;26;20239;-30
2024/04/25 05:00:45;;;;;;;1.27;0.98;;;22.80;82.00;;;;;;5434520;26;20235;-31
2024/04/25 05:03:14;;;;;;;2.35;1.00;;;23.00;79.90;;;;;;5437388;26;20294;-30
2024/04/25 05:05:42;;;;;;;1.40;1.10;;;21.90;77.30;;;;;;5438351;26;20373;-29
2024/04/25 05:08:10;;;;;;;1.40;0.97;;;22.70;79.90;;;;;;5427093;26;20234;-30
2024/04/25 05:10:39;;;;;;;1.25;0.85;;;22.70;79.60;;;;;;5427846;26;20475;-30
2024/04/25 05:13:12;;;;;;;1.20;0.93;;;22.70;77.70;;;;;;5433304;26;20934;-29
2024/04/25 05:15:40;;;;;;;1.15;0.95;;;21.80;76.40;;;;;;5420687;26;20269;-34
2024/04/25 05:18:14;;;;;;;1.45;0.88;;;22.70;81.60;;;;;;5433952;26;20315;-31
2024/04/25 05:20:44;;;;;;;1.42;0.90;;;22.20;78.30;;;;;;5427446;26;20382;-31
2024/04/25 05:23:15;;;;;;;2.10;0.98;;;22.00;79.00;;;;;;5429668;26;21231;-32
2024/04/25 05:25:46;;;;;;;1.15;0.88;;;22.20;79.20;;;;;;5421311;26;20232;-30
2024/04/25 05:28:18;;;;;;;1.10;0.80;;;23.50;79.80;;;;;;5425986;26;21589;-30
2024/04/25 05:30:46;;;;;;;1.42;0.90;;;22.00;79.30;;;;;;5426491;26;20369;-33
2024/04/25 05:33:17;;;;;;;1.08;0.80;;;22.70;74.50;;;;;;5429937;26;20254;-28
2024/04/25 05:35:48;;;;;;;1.13;0.77;;;22.30;75.30;;;;;;5428912;26;20882;-29
2024/04/25 05:38:19;;;;;;;1.10;0.80;;;22.30;78.60;;;;;;5432252;26;20273;-31
2024/04/25 05:40:49;;;;;;;1.00;0.75;;;22.30;78.90;;;;;;5434830;26;20242;-29
2024/04/25 05:43:21;;;;;;;1.10;0.80;;;22.40;76.00;;;;;;5420056;26;20856;-32
2024/04/25 05:45:49;;;;;;;1.30;0.90;;;22.50;78.40;;;;;;5434580;26;22981;-31
2024/04/25 05:48:20;;;;;;;2.27;1.20;;;22.10;76.00;;;;;;5431006;26;20461;-28
2024/04/25 05:50:48;;;;;;;1.13;0.85;;;21.20;73.00;;;;;;5427643;26;20467;-28
2024/04/25 05:53:18;;;;;;;0.98;0.80;;;22.30;75.10;;;;;;5430868;26;20226;-30
2024/04/25 05:55:46;;;;;;;1.07;0.73;;;21.80;74.60;;;;;;5426317;26;20893;-29
2024/04/25 05:58:17;;;;;;;1.20;0.85;;;22.10;72.50;;;;;;5432838;26;20471;-29
2024/04/25 06:00:48;;;;;;;1.20;0.80;;;22.40;71.40;;;;;;5426250;26;21162;-29
2024/04/25 06:03:16;;;;;;;1.20;0.80;;;22.10;71.30;;;;;;5413670;26;20543;-33
2024/04/25 06:05:51;;;;;;;0.90;0.70;;;22.10;73.60;;;;;;5420524;26;20581;-29
2024/04/25 06:08:20;;;;;;;2.07;0.80;;;22.30;74.10;;;;;;5425282;26;21679;-31
2024/04/25 06:10:49;;;;;;;1.17;1.00;;;23.10;74.00;;;;;;5416274;26;20471;-30
2024/04/25 06:13:20;;;;;;;1.63;0.80;;;22.40;72.40;;;;;;5440935;26;20570;-31
2024/04/25 06:15:54;;;;;;;2.43;0.83;;;22.40;74.10;;;;;;5433416;26;20515;-29
2024/04/25 06:18:23;;;;;;;1.00;0.67;;;22.50;73.70;;;;;;5422917;26;21127;-29
2024/04/25 06:20:51;;;;;;;1.40;0.90;;;22.60;73.20;;;;;;5415477;26;21320;-29
2024/04/25 06:23:19;;;;;;;1.73;1.03;;;22.70;73.40;;;;;;5429254;26;20466;-29
2024/04/25 06:25:48;;;;;;;1.97;0.97;;;23.00;74.50;;;;;;5420473;26;23877;-29
2024/04/25 06:28:16;;;;;;;1.20;0.90;;;23.60;75.60;;;;;;5430557;26;20671;-31
2024/04/25 06:30:44;;;;;;;1.33;0.80;;;22.90;70.40;;;;;;5433633;26;20519;-29
2024/04/25 06:33:17;;;;;;;1.00;0.70;;;23.10;71.40;;;;;;5416123;26;20471;-29
2024/04/25 06:35:46;;;;;;;1.23;0.70;;;22.90;69.30;;;;;;5436695;26;20471;-29
2024/04/25 06:38:14;;;;;;;1.90;0.93;;;23.70;72.30;;;;;;5412991;26;20460;-29
2024/04/25 06:40:45;;;;;;;0.90;0.70;;;23.80;71.20;;;;;;5440677;26;20460;-29
2024/04/25 06:43:13;;;;;;;1.33;0.80;;;22.80;69.40;;;;;;5434851;26;20464;-30
2024/04/25 06:45:42;;;;;;;1.93;0.67;;;22.90;67.30;;;;;;5429763;26;20471;-33
2024/04/25 06:48:11;;;;;;;1.20;0.80;;;22.90;66.90;;;;;;5429530;26;20537;-29
2024/04/25 06:50:43;;;;;;;1.67;0.80;;;23.60;68.70;;;;;;5438283;26;21007;-29
2024/04/25 06:53:12;;;;;;;1.20;0.80;;;23.50;68.80;;;;;;5423607;26;20463;-28
2024/04/25 06:55:43;;;;;;;1.23;0.73;;;23.30;69.30;;;;;;5431231;26;21087;-30
2024/04/25 06:58:12;;;;;;;1.10;0.80;;;23.10;67.60;;;;;;5432524;26;20511;-29
2024/04/25 07:00:40;;;;;;;1.10;0.80;;;23.70;65.80;;;;;;5426876;26;20575;-30
2024/04/25 07:03:08;;;;;;;1.13;0.73;;;24.00;69.20;;;;;;5426197;26;20471;-30
2024/04/25 07:05:38;;;;;;;1.20;0.93;;;23.30;66.80;;;;;;5429579;26;21522;-31
2024/04/25 07:08:12;;;;;;;1.57;0.80;;;23.80;66.70;;;;;;5417478;26;20524;-29
2024/04/25 07:10:41;;;;;;;1.13;1.00;;;23.60;64.90;;;;;;5423314;26;21140;-29
2024/04/25 07:13:10;;;;;;;1.00;0.67;;;24.00;64.00;;;;;;5420934;26;20473;-29
2024/04/25 07:15:38;;;;;;;0.93;0.70;;;23.90;64.90;;;;;;5442758;26;20463;-29
2024/04/25 07:18:14;;;;;;;1.03;0.80;;;24.50;64.60;;;;;;5442667;26;21343;-29
2024/04/25 07:20:46;;;;;;;1.10;0.80;;;24.30;65.30;;;;;;5426498;26;20464;-31
2024/04/25 07:23:17;;;;;;;1.20;0.83;;;23.90;63.40;;;;;;5428803;26;21168;-29
2024/04/25 07:25:46;;;;;;;1.47;0.90;;;24.70;64.20;;;;;;5439510;26;21301;-29
2024/04/25 07:28:19;;;;;;;1.60;0.80;;;25.20;64.00;;;;;;5437304;26;20517;-31
2024/04/25 07:30:48;;;;;;;1.20;0.87;;;24.50;63.50;;;;;;5420925;26;20512;-29
2024/04/25 07:33:16;;;;;;;1.10;0.70;;;24.10;62.80;;;;;;5434782;26;20566;-31
2024/04/25 07:35:48;;;;;;;1.10;0.70;;;24.60;63.60;;;;;;5432640;26;20602;-29
2024/04/25 07:38:19;;;;;;;1.10;0.70;;;24.40;63.30;;;;;;5415802;26;20467;-30
2024/04/25 07:40:48;;;;;;;1.40;1.00;;;24.70;64.30;;;;;;5419420;26;20653;-31
2024/04/25 07:43:16;;;;;;;1.00;0.70;;;24.00;62.80;;;;;;5431130;26;20471;-32
2024/04/25 07:45:44;;;;;;;1.00;0.70;;;24.80;64.90;;;;;;5423464;26;20474;-32
2024/04/25 07:48:14;;;;;;;2.27;0.70;;;24.30;65.10;;;;;;5429487;26;20528;-32
2024/04/25 07:50:43;;;;;;;1.23;0.80;;;24.60;65.70;;;;;;5433727;26;20474;-28
2024/04/25 07:53:13;;;;;;;1.03;0.80;;;23.60;63.80;;;;;;5435973;26;20466;-30
2024/04/25 07:55:44;;;;;;;3.57;1.00;;;25.30;65.30;;;;;;5428780;26;21585;-29
2024/04/25 07:58:15;;;;;;;1.07;0.80;;;24.40;63.50;;;;;;5428055;26;20459;-30
2024/04/25 08:00:44;;;;;;;0.97;0.70;;;24.30;63.20;;;;;;5436215;26;20459;-31
2024/04/25 08:03:14;;;;;;;1.10;0.80;;;24.30;63.40;;;;;;5424630;26;20502;-29
2024/04/25 08:05:42;;;;;;;1.40;0.83;;;24.60;63.50;;;;;;5434066;26;21095;-30
2024/04/25 08:08:11;;;;;;;1.40;0.73;;;24.60;63.80;;;;;;5423602;26;20481;-30
2024/04/25 08:10:40;;;;;;;1.10;0.70;;;24.70;65.60;;;;;;5444977;26;20541;-31
2024/04/25 08:13:11;;;;;;;1.07;0.83;;;24.60;64.30;;;;;;5432613;26;20567;-31
2024/04/25 08:15:40;;;;;;;1.37;0.80;;;24.80;63.90;;;;;;5422677;26;21350;-30
2024/04/25 08:18:10;;;;;;;2.10;0.80;;;24.80;63.60;;;;;;5425082;26;20462;-30
2024/04/25 08:20:40;;;;;;;1.10;0.80;;;24.70;63.40;;;;;;5438751;26;20612;-30
2024/04/25 08:23:08;;;;;;;1.00;0.73;;;24.80;64.70;;;;;;5436058;26;20462;-29
2024/04/25 08:25:39;;;;;;;2.03;0.90;;;24.70;63.70;;;;;;5437753;26;20461;-29
2024/04/25 08:28:12;;;;;;;1.20;0.80;;;25.40;63.90;;;;;;5428601;26;20465;-29
2024/04/25 08:30:41;;;;;;;1.00;0.70;;;24.80;62.90;;;;;;5424885;26;20519;-33
2024/04/25 08:33:17;;;;;;;1.23;0.80;;;25.00;64.00;;;;;;5429586;26;21508;-30
2024/04/25 08:35:45;;;;;;;1.60;0.80;;;24.60;61.90;;;;;;5430028;26;21151;-28
2024/04/25 08:38:17;;;;;;;2.03;0.90;;;25.90;63.90;;;;;;5428545;26;20472;-29
2024/04/25 08:40:50;;;;;;;1.43;1.00;;;25.90;61.70;;;;;;5425288;26;20542;-29
2024/04/25 08:43:25;;;;;;;2.50;1.03;;;25.60;61.40;;;;;;5431850;26;20461;-29
2024/04/25 08:45:54;;;;;;;4.47;1.00;;;25.10;60.50;;;;;;5433652;26;22099;-31
2024/04/25 08:48:23;;;;;;;3.07;1.00;;;25.30;60.50;;;;;;5432516;26;20525;-29
2024/04/25 08:50:53;;;;;;;1.10;0.70;;;25.60;60.80;;;;;;5430141;26;21028;-29
2024/04/25 08:53:25;;;;;;;2.90;1.07;;;25.60;59.90;;;;;;5438593;26;20475;-29
2024/04/25 08:55:53;;;;;;;3.03;1.10;;;25.30;59.50;;;;;;5426405;26;20458;-29
2024/04/25 08:58:28;;;;;;;2.17;1.17;;;25.70;59.80;;;;;;5428561;26;20582;-30
2024/04/25 09:00:58;;;;;;;2.20;0.90;;;25.50;61.10;;;;;;5417595;26;20588;-29
2024/04/25 09:03:28;;;;;;;2.43;1.03;;;26.40;60.70;;;;;;5435272;26;20454;-30
2024/04/25 09:05:56;;;;;;;1.10;1.00;;;25.30;60.10;;;;;;5434552;26;20683;-30
2024/04/25 09:08:25;;;;;;;1.83;1.10;;;25.50;61.00;;;;;;5426120;26;20470;-29
2024/04/25 09:10:59;;;;;;;1.17;0.80;;;25.80;61.90;;;;;;5376301;26;21803;-30
2024/04/25 09:13:30;;;;;;;2.57;1.10;;;25.30;62.30;;;;;;5325590;26;20462;-29
2024/04/25 09:16:04;;;;;;;2.20;1.40;;;25.50;63.40;;;;;;5334383;26;20483;-28
2024/04/25 09:18:34;;;;;;;4.80;1.03;;;25.90;64.30;;;;;;5335108;26;20475;-28
2024/04/25 09:21:06;;;;;;;2.23;1.00;;;25.80;72.10;;;;;;5334096;26;21424;-29
2024/04/25 09:23:40;;;;;;;1.93;0.97;;;25.60;78.50;;;;;;5323449;26;20463;-30
2024/04/25 09:26:13;;;;;;;1.40;0.90;;;25.50;56.00;;;;;;5337249;26;20481;-31
2024/04/25 09:28:45;;;;;;;1.33;1.10;;;25.60;56.80;;;;;;5323076;26;20524;-29
2024/04/25 09:31:14;;;;;;;1.97;0.97;;;26.20;56.50;;;;;;5336128;26;21418;-31
2024/04/25 09:33:47;;;;;;;1.43;1.03;;;26.00;56.40;;;;;;5331497;26;20467;-28
2024/04/25 09:36:16;;;;;;;1.40;0.80;;;26.00;56.70;;;;;;5332995;26;21286;-29
2024/04/25 09:38:47;;;;;;;1.33;1.23;;;25.80;56.60;;;;;;5326507;26;20612;-31
2024/04/25 09:41:16;;;;;;;1.50;1.13;;;26.70;57.30;;;;;;5340938;26;20574;-29
2024/04/25 09:43:47;;;;;;;2.40;1.10;;;26.30;58.20;;;;;;5340459;26;20532;-31
2024/04/25 09:46:22;;;;;;;2.23;1.00;;;25.60;56.90;;;;;;5351280;26;20471;-30
2024/04/25 09:49:05;;;;;;;2.43;0.90;;;25.70;57.30;;;;;;5416520;26;20559;-31
2024/04/25 09:51:39;;;;;;;1.87;1.30;;;25.60;57.60;;;;;;5443927;26;20518;-31
2024/04/25 09:54:14;;;;;;;1.20;0.87;;;26.00;58.30;;;;;;5427152;26;20483;-29
2024/04/25 09:56:50;;;;;;;2.67;1.23;;;25.70;57.60;;;;;;5424839;26;21148;-30
2024/04/25 09:59:39;;;;;;;1.53;1.00;;;25.70;55.70;;;;;;5420615;26;20469;-31
2024/04/25 10:02:15;;;;;;;5.30;1.03;;;25.90;57.70;;;;;;5420162;26;20598;-30
2024/04/25 10:04:44;;;;;;;2.10;1.30;;;25.90;57.60;;;;;;5417517;26;20470;-34
2024/04/25 10:07:13;;;;;;;2.63;1.10;;;26.80;59.20;;;;;;5435677;26;21511;-33
2024/04/25 10:09:42;;;;;;;2.87;1.40;;;26.00;58.30;;;;;;5416875;26;20478;-34
2024/04/25 10:12:11;;;;;;;2.17;1.33;;;25.50;58.00;;;;;;5426810;26;22056;-35
2024/04/25 10:14:44;;;;;;;3.93;1.10;;;25.60;57.80;;;;;;5421564;26;20584;-34
2024/04/25 10:17:24;;;;;;;1.63;1.20;;;26.10;58.10;;;;;;5425051;26;20454;-33
2024/04/25 10:19:55;;;;;;;3.00;1.00;;;25.80;58.00;;;;;;5411501;26;21383;-34
2024/04/25 10:22:25;;;;;;;2.43;1.07;;;25.80;57.20;;;;;;5433742;26;20466;-35
2024/04/25 10:24:55;;;;;;;1.27;0.90;;;26.40;58.20;;;;;;5404763;26;21237;-33
2024/04/25 10:27:24;;;;;;;1.73;0.90;;;25.60;57.30;;;;;;5425509;26;20546;-31
2024/04/25 10:30:06;;;;;;;1.70;0.87;;;25.70;57.50;;;;;;5416388;26;20480;-32
2024/04/25 10:32:39;;;;;;;1.97;1.20;;;25.80;57.60;;;;;;5427025;26;20508;-33
2024/04/25 10:35:07;;;;;;;1.30;0.80;;;25.80;57.70;;;;;;5429155;26;20463;-32
2024/04/25 10:37:39;;;;;;;1.70;1.00;;;25.60;58.00;;;;;;5433734;26;20466;-31
2024/04/25 10:40:14;;;;;;;1.53;0.90;;;25.90;57.90;;;;;;5424820;26;20485;-31
2024/04/25 10:42:42;;;;;;;2.13;1.17;;;25.90;57.40;;;;;;5393618;26;20473;-32
2024/04/25 10:45:13;;;;;;;3.40;1.23;;;25.70;58.10;;;;;;5428114;26;20472;-31
2024/04/25 10:47:43;;;;;;;3.50;1.53;;;25.60;57.80;;;;;;5399821;26;20575;-32
2024/04/25 10:50:12;;;;;;;1.30;0.93;;;25.90;56.70;;;;;;5435555;26;20471;-32
2024/04/25 10:52:40;;;;;;;1.20;0.90;;;26.40;58.50;;;;;;5418770;26;20468;-32
2024/04/25 10:55:09;;;;;;;2.30;0.90;;;26.40;58.20;;;;;;5428197;26;20471;-32
2024/04/25 10:57:37;;;;;;;1.90;1.07;;;26.00;57.60;;;;;;5426418;26;20484;-34
2024/04/25 11:00:09;;;;;;;1.43;1.00;;;25.90;58.40;;;;;;5430007;26;20672;-31
2024/04/25 11:02:40;;;;;;;2.83;1.10;;;25.90;56.90;;;;;;5428436;26;20478;-31
2024/04/25 11:05:09;;;;;;;1.60;0.90;;;25.80;57.40;;;;;;5429592;26;20465;-32
2024/04/25 11:07:40;;;;;;;2.23;0.87;;;25.90;57.50;;;;;;5410429;26;20488;-31
2024/04/25 11:10:10;;;;;;;2.30;1.10;;;25.80;55.40;;;;;;5429544;26;20509;-33
2024/04/25 11:12:39;;;;;;;1.47;1.07;;;25.90;57.50;;;;;;5389100;26;21852;-32
2024/04/25 11:15:17;;;;;;;2.57;1.77;;;25.90;58.30;;;;;;5433257;26;21809;-33
2024/04/25 11:17:51;;;;;;;2.50;1.13;;;26.00;59.30;;;;;;5384044;26;20459;-32
2024/04/25 11:20:22;;;;;;;1.90;1.07;;;26.10;60.90;;;;;;5431215;26;21812;-33
2024/04/25 11:22:51;;;;;;;1.20;1.00;;;26.00;60.70;;;;;;5428558;26;21020;-32
2024/04/25 11:25:22;;;;;;;1.40;1.00;;;26.10;61.40;;;;;;5427254;26;20542;-31
2024/04/25 11:27:51;;;;;;;2.43;1.00;;;26.10;61.60;;;;;;5421903;26;22551;-31
2024/04/25 11:30:19;;;;;;;1.40;1.10;;;26.10;61.70;;;;;;5429678;26;20459;-33
2024/04/25 11:32:54;;;;;;;2.57;1.10;;;26.10;62.00;;;;;;5436538;26;20583;-36
2024/04/25 11:35:24;;;;;;;1.33;1.00;;;26.30;62.50;;;;;;5419822;26;20459;-35
2024/04/25 11:37:56;;;;;;;1.20;1.10;;;25.80;60.90;;;;;;5420991;26;21192;-34
2024/04/25 11:40:35;;;;;;;1.60;1.13;;;27.10;63.80;;;;;;5438674;26;20462;-34
2024/04/25 11:43:06;;;;;;;1.30;0.90;;;28.00;65.90;;;;;;5420060;26;21127;-33
2024/04/25 11:45:50;;;;;;;;;;;;;;;;;;;;;
2024/04/25 11:48:26;;;;;;;1.43;1.03;;;27.10;66.20;;;;;;5413283;26;20563;-35
2024/04/25 11:50:57;;;;;;;1.30;0.90;;;26.30;65.10;;;;;;5422529;26;20550;-34
2024/04/25 11:53:29;;;;;;;1.30;1.10;;;26.10;66.70;;;;;;5418295;26;20459;-33
2024/04/25 11:56:01;;;;;;;1.90;1.77;;;26.20;71.40;;;;;;5425267;26;20479;-33
2024/04/25 11:58:34;;;;;;;1.70;1.00;;;26.50;75.70;;;;;;5433004;26;20542;-34
2024/04/25 12:01:03;;;;;;;2.70;1.27;;;25.90;54.90;;;;;;5414625;26;21788;-33
2024/04/25 12:03:37;;;;;;;1.63;0.97;;;25.80;55.60;;;;;;5430552;26;20557;-30
2024/04/25 12:06:07;;;;;;;1.27;1.00;;;25.80;55.40;;;;;;5425756;26;20581;-31
2024/04/25 12:08:44;;;;;;;1.57;1.00;;;25.90;56.00;;;;;;5430475;26;20874;-30
2024/04/25 12:11:15;;;;;;;2.23;1.13;;;26.00;55.60;;;;;;5438703;26;21178;-31
2024/04/25 12:13:45;;;;;;;2.03;1.20;;;26.10;55.40;;;;;;5420158;26;20496;-30
2024/04/25 12:16:14;;;;;;;1.50;1.10;;;26.00;55.60;;;;;;5448066;26;20526;-30
2024/04/25 12:18:47;;;;;;;1.83;1.50;;;26.30;55.90;;;;;;5438282;26;20511;-31
2024/04/25 12:21:16;;;;;;;2.20;1.20;;;26.00;55.90;;;;;;5433894;26;20581;-31
2024/04/25 12:23:44;;;;;;;2.13;1.00;;;26.20;56.20;;;;;;5434905;26;23490;-30
2024/04/25 12:26:13;;;;;;;1.47;1.07;;;27.00;56.40;;;;;;5438187;26;20459;-30
2024/04/25 12:28:43;;;;;;;1.10;0.80;;;26.00;56.00;;;;;;5426166;26;20564;-33
2024/04/25 12:31:13;;;;;;;1.93;1.10;;;26.50;56.10;;;;;;5427053;26;20458;-31
2024/04/25 12:33:42;;;;;;;1.30;0.80;;;26.20;55.30;;;;;;5430042;26;20544;-30
2024/04/25 12:36:13;;;;;;;1.93;0.90;;;26.20;55.40;;;;;;5426553;26;20565;-31
2024/04/25 12:38:41;;;;;;;1.20;1.00;;;25.70;54.80;;;;;;5434724;26;20597;-33
2024/04/25 12:41:12;;;;;;;1.60;1.00;;;26.00;55.40;;;;;;5441200;26;20780;-31
2024/04/25 12:43:41;;;;;;;1.17;1.07;;;26.20;55.60;;;;;;5439012;26;21066;-30
2024/04/25 12:46:09;;;;;;;1.20;0.80;;;26.20;56.00;;;;;;5437377;26;20596;-30
2024/04/25 12:48:37;;;;;;;1.63;0.93;;;26.10;55.70;;;;;;5425424;26;20849;-30
2024/04/25 12:51:08;;;;;;;1.70;1.00;;;26.90;56.00;;;;;;5420695;26;20467;-32
2024/04/25 12:53:39;;;;;;;1.10;0.70;;;26.30;55.60;;;;;;5426593;26;20475;-30
2024/04/25 12:56:09;;;;;;;1.13;0.97;;;26.60;55.60;;;;;;5435536;26;20812;-30
2024/04/25 12:58:40;;;;;;;2.50;1.00;;;26.10;55.90;;;;;;5441530;26;20512;-31
2024/04/25 13:01:11;;;;;;;1.33;1.10;;;25.90;55.70;;;;;;5432515;26;20473;-31
2024/04/25 13:03:39;;;;;;;1.30;1.03;;;25.90;55.60;;;;;;5432470;26;20513;-31
2024/04/25 13:06:08;;;;;;;1.60;1.00;;;26.50;56.30;;;;;;5447846;26;20913;-32
2024/04/25 13:08:41;;;;;;;1.20;0.93;;;26.20;55.90;;;;;;5434218;26;21024;-31
2024/04/25 13:11:10;;;;;;;1.33;1.10;;;27.40;56.40;;;;;;5440482;26;20526;-31